Time;durP1;ratioP1;P1;durP2;ratioP2;P2;SDS_P1;SDS_P2;PMS_P1;PMS_P2;Temp;Humidity;BMP_temperature;BMP_pressure;BME280_temperature;BME280_humidity;BME280_pressure;Samples;Min_cycle;Max_cycle;Signal;HPM_P1;HPM_P2
2022/02/24 00:01:20;;;;;;;9.60;5.75;;;5.50;13.90;;;;;;7359262;19;20020;-61
2022/02/24 00:03:50;;;;;;;8.13;5.97;;;5.60;13.70;;;;;;7360432;19;20039;-62
2022/02/24 00:06:22;;;;;;;15.15;6.38;;;5.60;13.30;;;;;;7380804;19;20533;-61
2022/02/24 00:08:52;;;;;;;12.30;5.38;;;5.80;13.10;;;;;;7357692;19;20090;-63
2022/02/24 00:11:24;;;;;;;12.82;5.50;;;5.80;12.60;;;;;;7360502;19;20024;-62
2022/02/24 00:13:54;;;;;;;7.05;5.10;;;5.90;12.00;;;;;;7363433;19;20015;-61
2022/02/24 00:16:24;;;;;;;7.65;4.88;;;6.00;10.70;;;;;;7359461;19;20011;-62
2022/02/24 00:18:54;;;;;;;10.65;4.45;;;6.00;9.90;;;;;;7357730;19;20015;-61
2022/02/24 00:21:24;;;;;;;8.40;5.03;;;5.90;10.30;;;;;;7382108;19;20061;-61
2022/02/24 00:23:54;;;;;;;12.68;5.10;;;5.90;10.80;;;;;;7362445;19;20011;-62
2022/02/24 00:26:27;;;;;;;9.23;5.80;;;5.90;10.80;;;;;;7358098;19;20021;-61
2022/02/24 00:28:56;;;;;;;9.60;5.40;;;5.80;10.50;;;;;;7357870;19;20006;-63
2022/02/24 00:31:26;;;;;;;11.90;5.88;;;5.80;10.60;;;;;;7359214;19;20006;-62
2022/02/24 00:33:56;;;;;;;8.15;5.18;;;5.80;10.90;;;;;;7363381;19;20011;-61
2022/02/24 00:36:26;;;;;;;9.02;5.47;;;5.70;11.30;;;;;;7380771;19;20021;-63
2022/02/24 00:38:56;;;;;;;9.77;5.07;;;5.70;11.70;;;;;;7356018;19;20017;-62
2022/02/24 00:41:28;;;;;;;10.35;5.50;;;5.70;12.10;;;;;;7357252;19;20142;-62
2022/02/24 00:43:58;;;;;;;9.27;5.18;;;5.60;12.30;;;;;;7362163;19;20015;-63
2022/02/24 00:46:28;;;;;;;11.73;5.68;;;5.50;12.90;;;;;;7359971;19;20029;-62
2022/02/24 00:48:58;;;;;;;11.65;5.75;;;5.50;12.90;;;;;;7356426;19;20036;-62
2022/02/24 00:51:28;;;;;;;8.63;5.28;;;5.60;13.00;;;;;;7378633;19;20423;-62
2022/02/24 00:56:34;;;;;;;13.77;6.43;;;5.50;12.90;;;;;;7362004;19;20115;-62
2022/02/24 00:59:04;;;;;;;10.85;6.35;;;5.40;13.30;;;;;;7364618;19;20078;-61
2022/02/24 01:01:34;;;;;;;9.73;5.53;;;5.40;14.00;;;;;;7365105;19;20011;-61
2022/02/24 01:04:04;;;;;;;13.07;5.68;;;5.40;13.90;;;;;;7367848;19;20014;-61
2022/02/24 01:06:34;;;;;;;11.88;6.15;;;5.40;14.00;;;;;;7367046;19;20017;-62
2022/02/24 01:09:05;;;;;;;9.02;6.18;;;5.40;13.90;;;;;;7383914;19;20432;-61
2022/02/24 01:11:37;;;;;;;10.65;6.10;;;5.40;14.00;;;;;;7363754;19;20369;-61
2022/02/24 01:14:07;;;;;;;12.02;6.82;;;5.40;13.90;;;;;;7366950;19;20019;-61
2022/02/24 01:16:37;;;;;;;8.85;5.97;;;5.40;13.70;;;;;;7365921;19;21058;-61
2022/02/24 01:19:07;;;;;;;8.68;5.82;;;5.40;14.00;;;;;;7363484;19;20011;-61
2022/02/24 01:21:38;;;;;;;13.38;5.80;;;5.40;14.30;;;;;;7364089;19;20018;-63
2022/02/24 01:24:08;;;;;;;8.70;5.60;;;5.40;14.50;;;;;;7387252;19;20358;-61
2022/02/24 01:26:41;;;;;;;7.45;4.93;;;5.30;14.60;;;;;;7364272;19;20014;-62
2022/02/24 01:29:10;;;;;;;9.25;4.90;;;5.40;15.20;;;;;;7362051;19;20006;-62
2022/02/24 01:31:40;;;;;;;6.95;3.75;;;5.70;14.50;;;;;;7365932;19;20442;-61
2022/02/24 01:34:10;;;;;;;8.40;4.07;;;5.80;13.20;;;;;;7364913;19;20374;-62
2022/02/24 01:36:40;;;;;;;5.35;3.33;;;5.90;12.90;;;;;;7364528;19;20403;-63
2022/02/24 01:39:10;;;;;;;5.95;2.97;;;6.00;12.20;;;;;;7383687;19;20014;-62
2022/02/24 01:41:42;;;;;;;3.80;2.83;;;6.00;11.70;;;;;;7367128;19;20014;-62
2022/02/24 01:44:14;;;;;;;4.50;2.90;;;6.00;11.00;;;;;;7367165;19;20018;-62
2022/02/24 01:46:45;;;;;;;5.55;2.53;;;6.20;11.10;;;;;;7365035;19;20082;-62
2022/02/24 01:49:15;;;;;;;5.15;2.90;;;6.20;10.80;;;;;;7359747;19;20010;-62
2022/02/24 01:51:45;;;;;;;5.60;2.75;;;6.30;10.00;;;;;;7368653;19;20081;-62
2022/02/24 01:54:16;;;;;;;4.30;2.60;;;6.40;9.80;;;;;;7388805;19;20010;-62
2022/02/24 01:56:48;;;;;;;5.10;3.13;;;6.40;9.80;;;;;;7360624;19;20098;-62
2022/02/24 01:59:18;;;;;;;5.22;2.47;;;6.40;9.80;;;;;;7359142;19;20078;-62
2022/02/24 02:01:48;;;;;;;5.47;3.00;;;6.40;9.80;;;;;;7366701;19;20450;-62
2022/02/24 02:04:18;;;;;;;5.82;2.83;;;6.30;9.80;;;;;;7366146;19;20035;-61
2022/02/24 02:06:48;;;;;;;5.05;2.88;;;6.30;10.10;;;;;;7363521;19;20088;-61
2022/02/24 02:09:19;;;;;;;4.97;2.53;;;6.20;9.80;;;;;;7378777;19;20017;-62
2022/02/24 02:11:52;;;;;;;6.03;3.42;;;6.20;11.00;;;;;;7366099;19;20059;-62
2022/02/24 02:14:22;;;;;;;4.78;2.95;;;6.10;11.40;;;;;;7366853;19;20010;-62
2022/02/24 02:16:54;;;;;;;7.25;3.00;;;6.00;12.40;;;;;;7364714;19;20098;-62
2022/02/24 02:19:24;;;;;;;4.80;3.00;;;6.00;12.30;;;;;;7358659;19;20081;-62
2022/02/24 02:21:56;;;;;;;6.95;3.30;;;6.00;13.20;;;;;;7365405;19;20082;-63
2022/02/24 02:24:26;;;;;;;5.78;3.65;;;6.00;13.20;;;;;;7387474;19;20074;-62
2022/02/24 02:26:56;;;;;;;7.22;3.40;;;6.10;12.60;;;;;;7365281;19;20429;-62
2022/02/24 02:29:26;;;;;;;5.50;3.42;;;6.10;11.80;;;;;;7357613;19;20021;-62
2022/02/24 02:31:56;;;;;;;4.22;3.35;;;6.10;12.10;;;;;;7365076;19;20016;-62
2022/02/24 02:34:26;;;;;;;7.47;3.80;;;6.10;12.70;;;;;;7365728;19;20053;-61
2022/02/24 02:36:58;;;;;;;6.50;3.65;;;6.10;12.60;;;;;;7362581;19;20011;-61
2022/02/24 02:39:28;;;;;;;5.13;3.10;;;6.20;12.10;;;;;;7374361;19;20021;-61
2022/02/24 02:41:58;;;;;;;6.15;2.70;;;6.20;12.10;;;;;;7352907;19;20017;-61
2022/02/24 02:44:28;;;;;;;5.38;3.17;;;6.20;11.90;;;;;;7354601;19;20077;-62
2022/02/24 02:46:58;;;;;;;3.65;2.92;;;6.20;11.60;;;;;;7355246;19;20383;-62
2022/02/24 02:49:28;;;;;;;6.95;3.30;;;6.20;11.70;;;;;;7348829;19;20014;-62
2022/02/24 02:52:00;;;;;;;4.25;2.88;;;6.30;11.80;;;;;;7358590;19;20015;-62
2022/02/24 02:54:30;;;;;;;6.97;2.95;;;6.30;11.40;;;;;;7384508;19;20014;-62
2022/02/24 02:57:00;;;;;;;4.28;2.92;;;6.30;11.50;;;;;;7362328;19;20014;-61
2022/02/24 02:59:30;;;;;;;6.60;3.17;;;6.30;11.20;;;;;;7358775;19;20014;-61
2022/02/24 03:02:00;;;;;;;6.85;3.17;;;6.20;11.50;;;;;;7362246;19;20551;-61
2022/02/24 03:04:30;;;;;;;4.82;2.70;;;6.20;12.30;;;;;;7364007;19;20019;-61
2022/02/24 03:07:03;;;;;;;4.90;3.20;;;6.20;11.80;;;;;;7363332;19;20006;-61
2022/02/24 03:09:33;;;;;;;5.53;3.05;;;6.20;11.80;;;;;;7363604;19;20006;-61
2022/02/24 03:12:03;;;;;;;7.13;3.35;;;6.30;11.50;;;;;;7387069;19;20454;-61
2022/02/24 03:14:32;;;;;;;5.13;3.40;;;6.30;11.10;;;;;;7364160;19;20007;-62
2022/02/24 03:17:02;;;;;;;6.18;3.30;;;6.30;10.70;;;;;;7360923;19;20003;-62
2022/02/24 03:19:32;;;;;;;6.18;3.58;;;6.20;10.90;;;;;;7353587;19;20007;-63
2022/02/24 03:22:08;;;;;;;8.77;3.53;;;6.20;11.50;;;;;;7365406;19;20018;-62
2022/02/24 03:24:38;;;;;;;7.45;3.70;;;6.20;11.60;;;;;;7363513;19;20016;-60
2022/02/24 03:27:08;;;;;;;4.82;3.22;;;6.20;11.60;;;;;;7385145;19;20090;-61
2022/02/24 03:29:38;;;;;;;5.90;3.45;;;6.20;11.70;;;;;;7356103;19;20018;-61
2022/02/24 03:32:09;;;;;;;4.75;2.90;;;6.20;11.80;;;;;;7364728;19;20082;-62
2022/02/24 03:34:40;;;;;;;4.78;3.25;;;6.20;11.50;;;;;;7364388;19;20010;-61
2022/02/24 03:37:13;;;;;;;7.10;3.90;;;6.20;11.40;;;;;;7363432;19;20017;-61
2022/02/24 03:39:43;;;;;;;6.85;3.50;;;6.30;11.40;;;;;;7356095;19;20011;-61
2022/02/24 03:42:13;;;;;;;5.28;3.15;;;6.20;11.10;;;;;;7385729;19;20066;-61
2022/02/24 03:44:42;;;;;;;8.48;3.70;;;6.30;11.40;;;;;;7361747;19;20371;-61
2022/02/24 03:47:13;;;;;;;6.40;3.90;;;6.30;10.80;;;;;;7364640;19;20039;-61
2022/02/24 03:49:48;;;;;;;6.35;3.78;;;6.30;10.80;;;;;;7357024;19;20003;-61
2022/02/24 03:52:21;;;;;;;6.18;3.78;;;6.30;10.40;;;;;;7362702;19;20086;-61
2022/02/24 03:54:52;;;;;;;7.60;4.25;;;6.30;10.80;;;;;;7361117;19;20061;-62
2022/02/24 03:57:23;;;;;;;6.15;4.10;;;6.40;10.20;;;;;;7387159;19;20007;-61
2022/02/24 03:59:52;;;;;;;8.48;4.40;;;6.30;10.50;;;;;;7354090;19;20014;-61
2022/02/24 04:02:22;;;;;;;6.90;4.07;;;6.30;10.80;;;;;;7361390;19;20821;-61
2022/02/24 04:04:52;;;;;;;6.85;4.57;;;6.30;10.70;;;;;;7357241;19;20019;-61
2022/02/24 04:07:26;;;;;;;7.50;4.68;;;6.20;11.20;;;;;;7364281;19;20023;-61
2022/02/24 04:09:55;;;;;;;7.22;4.90;;;6.20;11.40;;;;;;7355251;19;20467;-60
2022/02/24 04:12:25;;;;;;;10.00;5.30;;;6.30;10.90;;;;;;7383732;19;20018;-60
2022/02/24 04:14:55;;;;;;;8.55;4.97;;;6.20;10.70;;;;;;7359493;19;20010;-62
2022/02/24 04:17:25;;;;;;;8.00;4.93;;;6.10;11.10;;;;;;7363388;19;20777;-61
2022/02/24 04:19:55;;;;;;;9.85;4.82;;;6.10;11.40;;;;;;7357803;19;20269;-61
2022/02/24 04:22:27;;;;;;;11.55;5.28;;;6.10;12.20;;;;;;7362033;19;20786;-60
2022/02/24 04:24:58;;;;;;;8.20;5.65;;;6.00;12.10;;;;;;7359627;19;20514;-61
2022/02/24 04:27:28;;;;;;;11.15;5.75;;;6.00;12.00;;;;;;7385263;19;20015;-61
2022/02/24 04:29:59;;;;;;;10.82;6.10;;;6.00;12.20;;;;;;7356022;19;20014;-61
2022/02/24 04:32:28;;;;;;;12.45;6.00;;;6.00;11.70;;;;;;7367137;19;20009;-61
2022/02/24 04:34:58;;;;;;;7.97;5.32;;;6.00;12.00;;;;;;7364396;19;20007;-61
2022/02/24 04:37:31;;;;;;;9.13;5.15;;;5.80;12.70;;;;;;7369527;19;20061;-61
2022/02/24 04:40:01;;;;;;;10.82;5.47;;;5.80;12.90;;;;;;7363523;19;20492;-61
2022/02/24 04:42:31;;;;;;;9.82;5.53;;;5.80;13.10;;;;;;7389165;19;20081;-61
2022/02/24 04:45:07;;;;;;;11.07;5.65;;;5.60;13.60;;;;;;7363607;19;20648;-61
2022/02/24 04:47:37;;;;;;;10.77;6.40;;;5.50;14.70;;;;;;7367731;19;20530;-62
2022/02/24 04:50:10;;;;;;;10.77;5.85;;;5.60;14.90;;;;;;7364706;19;20021;-61
2022/02/24 04:52:43;;;;;;;12.52;5.88;;;5.60;14.90;;;;;;7370653;19;20018;-61
2022/02/24 04:55:13;;;;;;;13.98;6.65;;;5.70;14.70;;;;;;7364174;19;20050;-61
2022/02/24 04:57:43;;;;;;;9.48;5.68;;;5.70;14.40;;;;;;7368151;19;20027;-62
2022/02/24 05:00:14;;;;;;;10.73;5.93;;;5.70;14.40;;;;;;7385739;19;20368;-62
2022/02/24 05:02:44;;;;;;;10.55;5.60;;;5.70;14.70;;;;;;7369606;19;20018;-61
2022/02/24 05:05:14;;;;;;;8.43;5.45;;;5.60;14.90;;;;;;7366199;19;20063;-61
2022/02/24 05:07:46;;;;;;;11.50;5.88;;;5.50;15.30;;;;;;7367783;19;20021;-61
2022/02/24 05:10:16;;;;;;;8.50;5.93;;;5.50;15.60;;;;;;7363606;19;20049;-61
2022/02/24 05:12:47;;;;;;;15.50;5.93;;;5.50;15.70;;;;;;7370170;19;20027;-61
2022/02/24 05:15:17;;;;;;;12.27;5.45;;;5.50;15.80;;;;;;7387190;19;20022;-63
2022/02/24 05:17:47;;;;;;;15.18;6.60;;;5.40;16.10;;;;;;7366308;19;20018;-62
2022/02/24 05:20:17;;;;;;;9.00;5.55;;;5.40;16.40;;;;;;7361915;19;20024;-61
2022/02/24 05:22:49;;;;;;;13.60;6.43;;;5.30;16.30;;;;;;7368646;19;20014;-62
2022/02/24 05:25:19;;;;;;;9.70;5.57;;;5.30;17.10;;;;;;7366770;19;20015;-62
2022/02/24 05:27:50;;;;;;;10.93;5.47;;;5.30;17.30;;;;;;7365941;19;20057;-62
2022/02/24 05:30:20;;;;;;;12.30;6.25;;;5.30;17.10;;;;;;7383268;19;20055;-62
2022/02/24 05:32:50;;;;;;;10.02;5.40;;;5.20;17.60;;;;;;7367024;19;20031;-62
2022/02/24 05:35:20;;;;;;;10.77;6.07;;;5.20;17.30;;;;;;7364941;19;20025;-62
2022/02/24 05:37:52;;;;;;;13.05;6.13;;;5.20;17.70;;;;;;7367393;19;20032;-61
2022/02/24 05:40:22;;;;;;;9.13;5.25;;;5.20;17.50;;;;;;7361348;19;20018;-61
2022/02/24 05:42:52;;;;;;;14.68;6.43;;;5.10;18.10;;;;;;7364460;19;20023;-61
2022/02/24 05:45:22;;;;;;;11.38;6.07;;;5.10;18.50;;;;;;7385656;19;20018;-61
2022/02/24 05:47:52;;;;;;;15.32;6.53;;;5.10;18.70;;;;;;7368090;19;20376;-62
2022/02/24 05:50:22;;;;;;;10.38;5.82;;;5.00;19.30;;;;;;7360755;19;20522;-61
2022/02/24 05:53:02;;;;;;;10.30;6.00;;;5.00;19.60;;;;;;7366692;19;20052;-62
2022/02/24 05:55:32;;;;;;;11.15;5.97;;;5.00;19.60;;;;;;7363604;19;20014;-62
2022/02/24 05:58:02;;;;;;;19.15;6.38;;;5.00;19.60;;;;;;7366353;19;20470;-62
2022/02/24 06:00:32;;;;;;;9.25;6.10;;;5.10;19.70;;;;;;7385107;19;20037;-61
2022/02/24 06:03:02;;;;;;;10.48;6.45;;;5.10;19.70;;;;;;7365326;19;20077;-61
2022/02/24 06:05:32;;;;;;;11.02;6.63;;;5.00;19.60;;;;;;7361234;19;20366;-61
2022/02/24 06:08:05;;;;;;;9.35;6.07;;;5.10;19.70;;;;;;7366399;19;20451;-61
2022/02/24 06:10:35;;;;;;;10.68;6.07;;;5.10;19.70;;;;;;7361495;19;20099;-61
2022/02/24 06:13:05;;;;;;;12.82;6.18;;;5.10;19.70;;;;;;7366208;19;20017;-61
2022/02/24 06:15:35;;;;;;;22.02;6.90;;;5.10;19.60;;;;;;7361228;19;20035;-62
2022/02/24 06:18:09;;;;;;;11.55;5.97;;;5.10;19.40;;;;;;7385735;19;20020;-61
2022/02/24 06:20:39;;;;;;;8.33;6.03;;;5.00;19.60;;;;;;7360966;19;20018;-61
2022/02/24 06:23:11;;;;;;;12.65;6.38;;;5.10;19.70;;;;;;7366782;19;20366;-61
2022/02/24 06:25:41;;;;;;;10.77;5.63;;;5.20;19.70;;;;;;7361827;19;20011;-61
2022/02/24 06:28:11;;;;;;;12.27;6.18;;;5.20;19.20;;;;;;7364276;19;20346;-61
2022/02/24 06:30:41;;;;;;;11.30;5.63;;;5.20;18.90;;;;;;7359348;19;20028;-62
2022/02/24 06:33:11;;;;;;;14.43;6.10;;;5.30;18.60;;;;;;7387458;19;20335;-62
2022/02/24 06:35:41;;;;;;;12.68;6.60;;;5.30;18.20;;;;;;7360802;19;20039;-62
2022/02/24 06:38:14;;;;;;;15.02;8.98;;;5.40;17.40;;;;;;7362661;19;20010;-62
2022/02/24 06:40:44;;;;;;;12.27;5.57;;;5.40;17.40;;;;;;7359309;19;20002;-62
2022/02/24 06:43:14;;;;;;;10.73;5.45;;;5.50;17.30;;;;;;7366116;19;20649;-61
2022/02/24 06:45:44;;;;;;;13.60;6.05;;;5.50;17.10;;;;;;7358092;19;20078;-62
2022/02/24 06:48:14;;;;;;;11.75;5.93;;;5.60;16.60;;;;;;7384403;19;20011;-62
2022/02/24 06:50:43;;;;;;;11.05;6.25;;;5.60;16.30;;;;;;7358347;19;20028;-62
2022/02/24 06:53:16;;;;;;;8.95;5.70;;;5.70;15.90;;;;;;7364355;19;20077;-62
2022/02/24 06:55:46;;;;;;;9.60;6.18;;;5.70;15.70;;;;;;7362042;19;20707;-62
2022/02/24 06:58:16;;;;;;;10.57;6.18;;;5.70;15.50;;;;;;7362119;19;20014;-60
2022/02/24 07:00:45;;;;;;;10.68;5.47;;;5.70;15.00;;;;;;7358387;19;20017;-61
2022/02/24 07:03:16;;;;;;;12.32;6.18;;;5.70;15.40;;;;;;7385574;19;20014;-62
2022/02/24 07:05:46;;;;;;;12.73;5.90;;;5.70;15.40;;;;;;7361084;19;20013;-61
2022/02/24 07:08:18;;;;;;;13.13;5.82;;;5.80;15.20;;;;;;7363433;19;20010;-62
2022/02/24 07:10:48;;;;;;;8.35;5.50;;;5.80;15.00;;;;;;7359027;19;20007;-62
2022/02/24 07:13:18;;;;;;;10.77;5.95;;;5.80;14.50;;;;;;7363390;19;20077;-62
2022/02/24 07:15:48;;;;;;;10.95;5.93;;;5.90;14.40;;;;;;7361498;19;20010;-62
2022/02/24 07:18:18;;;;;;;11.07;6.10;;;5.90;13.70;;;;;;7386214;19;20086;-62
2022/02/24 07:20:48;;;;;;;18.63;6.57;;;6.00;13.70;;;;;;7355434;19;20016;-62
2022/02/24 07:23:24;;;;;;;12.15;6.15;;;6.00;13.30;;;;;;7362206;19;20021;-62
2022/02/24 07:25:56;;;;;;;9.70;6.45;;;6.00;13.10;;;;;;7359100;19;20060;-62
2022/02/24 07:28:26;;;;;;;10.73;6.18;;;6.10;13.30;;;;;;7363304;19;20486;-62
2022/02/24 07:30:55;;;;;;;13.35;6.13;;;6.20;12.10;;;;;;7359079;19;20017;-62
2022/02/24 07:33:25;;;;;;;9.88;6.07;;;6.30;12.00;;;;;;7384065;19;20019;-61
2022/02/24 07:35:55;;;;;;;10.82;6.30;;;6.30;11.30;;;;;;7358196;19;20074;-62
2022/02/24 07:38:28;;;;;;;12.82;6.28;;;6.30;11.50;;;;;;7362285;19;20070;-61
2022/02/24 07:40:57;;;;;;;11.68;6.22;;;6.40;11.40;;;;;;7358875;19;20709;-63
2022/02/24 07:43:27;;;;;;;11.80;6.85;;;6.50;10.50;;;;;;7362519;19;20010;-62
2022/02/24 07:45:57;;;;;;;12.60;6.50;;;6.50;9.90;;;;;;7358115;19;20098;-61
2022/02/24 07:48:27;;;;;;;14.32;6.95;;;6.50;9.00;;;;;;7383816;19;20455;-63
2022/02/24 07:50:58;;;;;;;13.63;6.47;;;6.70;9.60;;;;;;7359060;19;20017;-62
2022/02/24 07:53:31;;;;;;;12.27;6.72;;;6.70;8.70;;;;;;7364141;19;20365;-62
2022/02/24 07:56:01;;;;;;;13.43;6.93;;;6.80;8.50;;;;;;7358297;19;20006;-62
2022/02/24 07:58:30;;;;;;;15.23;7.40;;;6.90;8.30;;;;;;7361206;19;20006;-61
2022/02/24 08:01:00;;;;;;;13.82;7.57;;;6.90;8.10;;;;;;7358225;19;20015;-62
2022/02/24 08:03:30;;;;;;;14.70;6.97;;;6.90;7.80;;;;;;7385108;19;20625;-62
2022/02/24 08:06:01;;;;;;;11.73;6.63;;;6.90;7.80;;;;;;7358065;19;20007;-61
2022/02/24 08:08:33;;;;;;;18.70;7.32;;;6.90;7.70;;;;;;7366654;19;20018;-62
2022/02/24 08:11:03;;;;;;;11.60;7.72;;;7.00;7.60;;;;;;7363273;19;20070;-62
2022/02/24 08:13:33;;;;;;;13.73;7.65;;;7.10;7.40;;;;;;7371386;19;20078;-62
2022/02/24 08:16:03;;;;;;;15.15;7.00;;;7.20;7.20;;;;;;7366454;19;20014;-61
2022/02/24 08:18:33;;;;;;;12.32;7.40;;;7.20;6.10;;;;;;7374925;19;20066;-64
2022/02/24 08:21:03;;;;;;;9.50;6.53;;;7.40;6.30;;;;;;7385604;19;20023;-63
2022/02/24 08:23:35;;;;;;;14.80;7.22;;;7.50;5.10;;;;;;7368252;19;20014;-60
2022/02/24 08:26:05;;;;;;;14.80;7.50;;;7.50;4.70;;;;;;7366049;19;20482;-60
2022/02/24 08:28:36;;;;;;;13.23;7.38;;;7.70;4.10;;;;;;7366984;19;20007;-59
2022/02/24 08:31:07;;;;;;;19.00;6.93;;;7.80;3.40;;;;;;7363363;19;20105;-61
2022/02/24 08:33:38;;;;;;;13.68;6.85;;;7.90;3.50;;;;;;7368074;19;20019;-62
2022/02/24 08:36:08;;;;;;;10.23;6.18;;;8.00;2.60;;;;;;7389018;19;20022;-62
2022/02/24 08:38:41;;;;;;;13.60;6.50;;;8.20;2.10;;;;;;7367003;19;20490;-61
2022/02/24 08:41:31;;;;;;;11.50;7.13;;;8.30;1.00;;;;;;7365997;19;20469;-62
2022/02/24 08:44:01;;;;;;;10.68;6.43;;;8.40;1.00;;;;;;7367625;19;20010;-61
2022/02/24 08:46:31;;;;;;;10.35;5.93;;;8.50;1.00;;;;;;7365882;19;20692;-60
2022/02/24 08:49:00;;;;;;;9.18;5.78;;;8.50;1.00;;;;;;7365569;19;20022;-60
2022/02/24 08:51:31;;;;;;;13.00;6.25;;;8.50;1.00;;;;;;7386029;19;20014;-62
2022/02/24 08:54:03;;;;;;;10.02;6.40;;;8.60;1.00;;;;;;7366816;19;20521;-60
2022/02/24 08:56:34;;;;;;;13.77;7.43;;;8.60;1.00;;;;;;7362806;19;20085;-61
2022/02/24 08:59:04;;;;;;;15.65;7.95;;;8.80;1.00;;;;;;7365357;19;20455;-61
2022/02/24 09:01:34;;;;;;;16.60;6.68;;;8.90;1.00;;;;;;7360768;19;20023;-59
2022/02/24 09:04:04;;;;;;;12.45;6.43;;;9.00;1.00;;;;;;7364968;19;20010;-61
2022/02/24 09:06:35;;;;;;;18.23;5.97;;;9.30;1.00;;;;;;7362678;19;20015;-60
2022/02/24 09:09:08;;;;;;;14.88;5.80;;;9.30;1.00;;;;;;7385982;19;20031;-61
2022/02/24 09:11:38;;;;;;;13.43;5.93;;;9.50;1.00;;;;;;7364689;19;20018;-62
2022/02/24 09:14:08;;;;;;;12.68;5.72;;;9.60;1.00;;;;;;7367719;19;20539;-61
2022/02/24 09:16:38;;;;;;;11.35;6.97;;;9.80;1.00;;;;;;7362361;19;20490;-62
2022/02/24 09:19:08;;;;;;;12.02;5.15;;;9.90;1.00;;;;;;7364589;19;20007;-60
2022/02/24 09:21:38;;;;;;;12.65;5.65;;;10.20;1.00;;;;;;7364179;19;20362;-62
2022/02/24 09:24:11;;;;;;;10.90;5.63;;;10.20;1.00;;;;;;7388572;19;20018;-60
2022/02/24 09:26:42;;;;;;;13.57;5.65;;;10.30;1.00;;;;;;7360767;19;20485;-61
2022/02/24 09:29:14;;;;;;;10.48;5.10;;;10.20;1.00;;;;;;7362290;19;20010;-61
2022/02/24 09:31:45;;;;;;;10.40;5.15;;;10.30;1.00;;;;;;7366580;19;20016;-60
2022/02/24 09:34:15;;;;;;;10.65;5.15;;;10.30;1.00;;;;;;7368423;19;20458;-60
2022/02/24 09:36:47;;;;;;;10.48;5.30;;;10.20;1.00;;;;;;7362392;19;20106;-60
2022/02/24 09:39:20;;;;;;;8.50;4.45;;;10.20;1.00;;;;;;7382535;19;20010;-61
2022/02/24 09:41:50;;;;;;;7.90;4.43;;;10.30;1.00;;;;;;7365738;19;20588;-61
2022/02/24 09:44:20;;;;;;;10.10;4.88;;;10.30;1.00;;;;;;7366359;19;20019;-61
2022/02/24 09:46:51;;;;;;;9.77;4.88;;;10.40;1.00;;;;;;7362261;19;20033;-60
2022/02/24 09:49:22;;;;;;;11.48;5.25;;;10.40;1.00;;;;;;7359745;19;20011;-61
2022/02/24 09:51:51;;;;;;;11.82;5.00;;;10.50;1.00;;;;;;7364556;19;20025;-61
2022/02/24 09:54:24;;;;;;;10.57;5.40;;;10.70;1.00;;;;;;7387311;19;20073;-60
2022/02/24 09:56:55;;;;;;;7.22;4.82;;;10.80;1.00;;;;;;7363645;19;20007;-61
2022/02/24 09:59:25;;;;;;;7.65;5.10;;;10.80;1.00;;;;;;7359053;19;20010;-61
2022/02/24 10:01:56;;;;;;;9.73;4.65;;;10.90;1.00;;;;;;7362736;19;20344;-61
2022/02/24 10:04:26;;;;;;;10.13;5.18;;;11.20;1.00;;;;;;7365953;19;20010;-61
2022/02/24 10:06:56;;;;;;;11.65;5.00;;;11.20;1.00;;;;;;7363659;19;20104;-59
2022/02/24 10:09:35;;;;;;;7.72;4.57;;;11.30;1.00;;;;;;7380745;19;20018;-60
2022/02/24 10:12:10;;;;;;;8.27;4.10;;;11.40;1.00;;;;;;7364330;19;20082;-60
2022/02/24 10:14:41;;;;;;;9.52;3.63;;;11.50;1.00;;;;;;7363511;19;20011;-61
2022/02/24 10:17:11;;;;;;;5.63;2.65;;;11.70;1.00;;;;;;7361747;19;20010;-61
2022/02/24 10:19:43;;;;;;;11.80;2.20;;;11.80;1.00;;;;;;7359899;19;20015;-61
2022/02/24 10:22:15;;;;;;;4.10;1.70;;;12.00;1.00;;;;;;7363242;19;20010;-61
2022/02/24 10:24:57;;;;;;;3.83;1.67;;;12.10;1.00;;;;;;7361640;19;20034;-61
2022/02/24 10:27:30;;;;;;;3.53;1.70;;;12.20;1.00;;;;;;7384927;19;20047;-61
2022/02/24 10:30:06;;;;;;;2.78;1.63;;;12.50;1.00;;;;;;7356339;19;20305;-61
2022/02/24 10:32:38;;;;;;;4.13;1.83;;;12.60;1.00;;;;;;7363990;19;20074;-60
2022/02/24 10:35:22;;;;;;;5.78;3.38;;;12.70;1.00;;;;;;7361502;19;20078;-61
2022/02/24 10:37:56;;;;;;;7.53;1.67;;;12.80;1.00;;;;;;7360765;19;20016;-60
2022/02/24 10:40:31;;;;;;;2.80;1.50;;;12.90;1.00;;;;;;7357564;19;20256;-61
2022/02/24 10:43:16;;;;;;;4.03;2.03;;;13.00;1.00;;;;;;7361862;19;20455;-61
2022/02/24 10:45:48;;;;;;;4.35;1.90;;;13.20;1.00;;;;;;7362299;19;20018;-61
2022/02/24 10:48:18;;;;;;;4.60;1.90;;;13.40;1.00;;;;;;7386293;19;20010;-61
2022/02/24 10:50:55;;;;;;;3.55;2.05;;;13.70;1.00;;;;;;7357112;19;20025;-61
2022/02/24 10:53:28;;;;;;;2.63;1.73;;;13.20;1.00;;;;;;7362272;19;20003;-60
2022/02/24 10:56:04;;;;;;;8.82;1.70;;;13.30;1.00;;;;;;7361222;19;20016;-61
2022/02/24 10:58:37;;;;;;;4.50;1.25;;;13.40;1.00;;;;;;7362102;19;20396;-60
2022/02/24 11:01:17;;;;;;;2.85;1.35;;;13.50;1.00;;;;;;7359135;19;20019;-60
2022/02/24 11:03:49;;;;;;;2.85;1.55;;;13.50;1.00;;;;;;7362810;19;20010;-61
2022/02/24 11:06:21;;;;;;;2.70;1.77;;;13.50;1.00;;;;;;7382263;19;20010;-60
2022/02/24 11:08:53;;;;;;;3.95;1.58;;;13.60;1.00;;;;;;7362207;19;20470;-61
2022/02/24 11:11:30;;;;;;;4.07;1.60;;;13.60;1.00;;;;;;7359904;19;20006;-60
2022/02/24 11:14:02;;;;;;;4.03;1.63;;;13.70;1.00;;;;;;7362984;19;20467;-60
2022/02/24 11:16:32;;;;;;;5.07;1.88;;;13.60;1.00;;;;;;7359661;19;20022;-60
2022/02/24 11:19:02;;;;;;;5.75;2.20;;;13.70;1.00;;;;;;7361174;19;20010;-60
2022/02/24 11:21:33;;;;;;;8.00;2.13;;;13.50;1.00;;;;;;7378233;19;20014;-64
2022/02/24 11:24:03;;;;;;;6.15;1.70;;;13.70;1.00;;;;;;7386863;19;20006;-60
2022/02/24 11:27:06;;;;;;;3.88;1.83;;;13.90;1.00;;;;;;7358548;19;20013;-64
2022/02/24 11:29:45;;;;;;;6.00;1.85;;;13.70;1.00;;;;;;7355598;19;20007;-61
2022/02/24 11:32:18;;;;;;;3.22;1.42;;;13.90;1.00;;;;;;7363362;19;20524;-60
2022/02/24 11:35:06;;;;;;;2.53;1.80;;;13.60;1.00;;;;;;7360732;19;20033;-61
2022/02/24 11:37:38;;;;;;;4.95;1.63;;;13.70;1.00;;;;;;7364091;19;20073;-60
2022/02/24 11:40:10;;;;;;;2.13;1.40;;;13.80;1.00;;;;;;7356817;19;20081;-60
2022/02/24 11:42:45;;;;;;;4.75;1.75;;;14.00;1.00;;;;;;7360824;19;20618;-61
2022/02/24 11:45:32;;;;;;;3.58;1.70;;;13.90;1.00;;;;;;7380394;19;20019;-61
2022/02/24 11:48:04;;;;;;;5.60;1.40;;;14.00;1.00;;;;;;7361774;19;20022;-60
2022/02/24 11:50:36;;;;;;;9.18;1.67;;;13.90;1.00;;;;;;7358219;19;20074;-61
2022/02/24 11:53:08;;;;;;;2.70;1.25;;;14.10;1.00;;;;;;7362791;19;20031;-60
2022/02/24 11:55:56;;;;;;;3.35;1.75;;;14.00;1.00;;;;;;7358851;19;20656;-61
2022/02/24 11:58:41;;;;;;;3.47;1.73;;;14.20;1.00;;;;;;7360931;19;20063;-60
2022/02/24 12:01:18;;;;;;;4.10;1.10;;;14.10;1.00;;;;;;7356842;19;20479;-59
2022/02/24 12:03:58;;;;;;;2.35;1.25;;;14.00;1.00;;;;;;7362116;19;20026;-61
2022/02/24 12:06:47;;;;;;;1.98;1.10;;;14.10;1.00;;;;;;7381901;19;20015;-61
2022/02/24 12:09:26;;;;;;;2.90;1.73;;;14.20;1.00;;;;;;7360615;19;20036;-61
2022/02/24 12:11:58;;;;;;;3.13;1.30;;;14.20;1.00;;;;;;7358444;19;20089;-62
2022/02/24 12:14:49;;;;;;;1.95;1.10;;;14.30;1.00;;;;;;7359249;19;20517;-59
2022/02/24 12:17:27;;;;;;;2.35;0.88;;;14.40;1.00;;;;;;7359670;19;20330;-60
2022/02/24 12:20:00;;;;;;;2.85;1.10;;;14.40;1.00;;;;;;7355564;19;20023;-61
2022/02/24 12:22:36;;;;;;;3.33;1.00;;;14.20;1.00;;;;;;7362169;19;20021;-61
2022/02/24 12:25:17;;;;;;;4.38;1.30;;;14.10;1.00;;;;;;7358602;19;20085;-61
2022/02/24 12:27:49;;;;;;;3.05;1.15;;;14.10;1.00;;;;;;7358885;19;20066;-60
2022/02/24 12:30:29;;;;;;;2.97;0.95;;;14.00;1.00;;;;;;7377733;19;20006;-60
2022/02/24 12:33:04;;;;;;;1.75;1.10;;;14.00;1.00;;;;;;7361819;19;20372;-60
2022/02/24 12:35:36;;;;;;;2.55;1.25;;;13.90;1.00;;;;;;7358876;19;20073;-60
2022/02/24 12:38:15;;;;;;;4.82;1.33;;;14.00;1.00;;;;;;7358691;19;20011;-62
2022/02/24 12:40:47;;;;;;;4.18;1.40;;;14.00;1.00;;;;;;7355252;19;20003;-61
2022/02/24 12:43:19;;;;;;;2.85;1.60;;;14.10;1.00;;;;;;7359553;19;20015;-60
2022/02/24 12:45:53;;;;;;;4.25;1.30;;;14.00;1.00;;;;;;7357144;19;20011;-59
2022/02/24 12:48:24;;;;;;;3.35;1.13;;;13.80;1.00;;;;;;7382228;19;20014;-61
2022/02/24 12:50:56;;;;;;;4.00;1.45;;;13.80;1.00;;;;;;7353716;19;20062;-60
2022/02/24 12:53:28;;;;;;;5.00;1.20;;;13.70;1.00;;;;;;7362336;19;20050;-62
2022/02/24 12:55:59;;;;;;;8.05;1.40;;;13.70;1.00;;;;;;7364226;19;20489;-60
2022/02/24 12:58:31;;;;;;;3.00;0.95;;;13.80;1.00;;;;;;7366805;19;20043;-61
2022/02/24 13:01:07;;;;;;;3.10;1.40;;;13.70;1.00;;;;;;7363057;19;20014;-62
2022/02/24 13:03:37;;;;;;;4.72;1.33;;;13.90;1.00;;;;;;7365268;19;20015;-61
2022/02/24 13:06:07;;;;;;;4.38;1.50;;;14.00;1.00;;;;;;7383250;19;20015;-61
2022/02/24 13:11:21;;;;;;;2.80;1.15;;;13.90;1.00;;;;;;7363395;19;20013;-61
2022/02/24 13:13:53;;;;;;;5.70;1.77;;;13.80;1.00;;;;;;7367579;19;20442;-61
2022/02/24 13:16:26;;;;;;;2.50;1.02;;;13.70;1.00;;;;;;7362985;19;20077;-63
2022/02/24 13:18:58;;;;;;;4.30;1.27;;;13.70;1.00;;;;;;7361276;19;20082;-61
2022/02/24 13:21:29;;;;;;;2.50;1.20;;;13.60;1.00;;;;;;7382891;19;20049;-62
2022/02/24 13:24:01;;;;;;;4.63;1.20;;;13.70;1.00;;;;;;7365822;19;20042;-62